createdAt,value
2023-05-21T00:00:48.515Z,23.58
2023-05-21T00:01:48.746Z,23.58
2023-05-21T00:02:48.484Z,23.57
2023-05-21T00:03:48.555Z,23.58
2023-05-21T00:04:47.702Z,23.58
2023-05-21T00:05:47.832Z,23.57
2023-05-21T00:06:47.912Z,23.57
2023-05-21T00:07:47.632Z,23.58
2023-05-21T00:08:47.806Z,23.57
2023-05-21T00:09:48.626Z,23.56
2023-05-21T00:10:48.758Z,23.57
2023-05-21T00:11:47.684Z,23.56
2023-05-21T00:12:47.724Z,23.57
2023-05-21T00:13:48.905Z,23.56
2023-05-21T00:14:48.767Z,23.57
2023-05-21T00:15:48.794Z,23.54
2023-05-21T00:16:48.932Z,23.54
2023-05-21T00:17:48.090Z,23.56
2023-05-21T00:18:47.925Z,23.58
2023-05-21T00:19:49.001Z,23.56
2023-05-21T00:20:49.007Z,23.56
2023-05-21T00:21:49.037Z,23.53
2023-05-21T00:22:49.042Z,23.56
2023-05-21T00:23:49.255Z,23.57
2023-05-21T00:24:49.061Z,23.56
2023-05-21T00:25:49.117Z,23.56
2023-05-21T00:26:49.112Z,23.54
2023-05-21T00:27:48.287Z,23.54
2023-05-21T00:28:48.239Z,23.54
2023-05-21T00:29:49.431Z,23.56
2023-05-21T00:30:48.273Z,23.56
2023-05-21T00:31:49.393Z,23.54
2023-05-21T00:32:48.290Z,23.54
2023-05-21T00:33:49.397Z,23.54
2023-05-21T00:34:49.616Z,23.54
2023-05-21T00:35:48.489Z,23.53
2023-05-21T00:36:49.709Z,23.53
2023-05-21T00:37:48.436Z,23.52
2023-05-21T00:38:48.663Z,23.54
2023-05-21T00:39:48.483Z,23.56
2023-05-21T00:40:49.755Z,23.54
2023-05-21T00:41:48.709Z,23.54
2023-05-21T00:42:48.774Z,23.54
2023-05-21T00:43:49.608Z,23.53
2023-05-21T00:44:48.657Z,23.53
2023-05-21T00:45:48.806Z,23.54
2023-05-21T00:46:48.772Z,23.53
2023-05-21T00:47:49.875Z,23.53
2023-05-21T00:48:48.785Z,23.53
2023-05-21T00:49:48.820Z,23.53
2023-05-21T00:50:49.087Z,23.52
2023-05-21T00:51:50.099Z,23.53
2023-05-21T00:52:49.985Z,23.53
2023-05-21T00:53:49.130Z,23.53
2023-05-21T00:54:49.190Z,23.52
2023-05-21T00:55:50.244Z,23.53
2023-05-21T00:56:49.156Z,23.52
2023-05-21T00:57:50.238Z,23.52
2023-05-21T00:58:49.103Z,23.50
2023-05-21T00:59:50.248Z,23.53
2023-05-21T01:00:50.217Z,23.52
2023-05-21T01:01:49.282Z,23.52
2023-05-21T01:02:49.501Z,23.53
2023-05-21T01:03:49.253Z,23.52
2023-05-21T01:04:50.300Z,23.50
2023-05-21T01:05:49.470Z,23.50
2023-05-21T01:06:50.378Z,23.52
2023-05-21T01:07:49.375Z,23.50
2023-05-21T01:08:50.396Z,23.50
2023-05-21T01:09:49.527Z,23.49
2023-05-21T01:10:50.633Z,23.49
2023-05-21T01:11:49.695Z,23.50
2023-05-21T01:12:50.623Z,23.50
2023-05-21T01:13:49.780Z,23.49
2023-05-21T01:14:49.689Z,23.52
2023-05-21T01:15:49.829Z,23.50
2023-05-21T01:16:50.702Z,23.47
2023-05-21T01:17:49.776Z,23.47
2023-05-21T01:18:49.852Z,23.49
2023-05-21T01:19:50.780Z,23.49
2023-05-21T01:20:50.805Z,23.50
2023-05-21T01:21:50.929Z,23.49
2023-05-21T01:22:51.100Z,23.49
2023-05-21T01:23:50.102Z,23.49
2023-05-21T01:24:51.158Z,23.50
2023-05-21T01:25:51.097Z,23.49
2023-05-21T01:26:50.073Z,23.46
2023-05-21T01:27:50.184Z,23.50
2023-05-21T01:28:50.244Z,23.50
2023-05-21T01:29:50.286Z,23.49
2023-05-21T01:30:50.170Z,23.50
2023-05-21T01:31:50.223Z,23.50
2023-05-21T01:32:51.362Z,23.49
2023-05-21T01:33:51.314Z,23.49
2023-05-21T01:34:51.354Z,23.47
2023-05-21T01:35:50.340Z,23.49
2023-05-21T01:36:51.413Z,23.47
2023-05-21T01:37:51.659Z,23.47
2023-05-21T01:38:50.551Z,23.47
2023-05-21T01:39:50.543Z,23.47
2023-05-21T01:40:51.611Z,23.46
2023-05-21T01:41:50.609Z,23.47
2023-05-21T01:42:50.657Z,23.47
2023-05-21T01:43:50.845Z,23.49
2023-05-21T01:44:51.703Z,23.47
2023-05-21T01:45:50.906Z,23.49
2023-05-21T01:46:50.907Z,23.46
2023-05-21T01:47:51.906Z,23.43
2023-05-21T01:48:52.129Z,23.46
2023-05-21T01:49:51.157Z,23.47
2023-05-21T01:50:50.935Z,23.47
2023-05-21T01:51:51.984Z,23.46
2023-05-21T01:52:52.086Z,23.46
2023-05-21T01:53:52.138Z,23.46
2023-05-21T01:54:52.260Z,23.47
2023-05-21T01:55:52.137Z,23.46
2023-05-21T01:56:52.512Z,23.46
2023-05-21T01:57:52.457Z,23.44
2023-05-21T01:58:51.539Z,23.46
2023-05-21T01:59:51.302Z,23.46
2023-05-21T02:00:52.358Z,23.46
2023-05-21T02:01:52.499Z,23.44
2023-05-21T02:02:52.489Z,23.43
2023-05-21T02:03:52.563Z,23.44
2023-05-21T02:04:52.782Z,23.44
2023-05-21T02:05:52.567Z,23.46
2023-05-21T02:06:51.597Z,23.44
2023-05-21T02:07:52.700Z,23.42
2023-05-21T02:08:51.743Z,23.43
2023-05-21T02:09:51.780Z,23.43
2023-05-21T02:10:52.779Z,23.46
2023-05-21T02:11:53.072Z,23.44
2023-05-21T02:12:52.021Z,23.43
2023-05-21T02:13:51.978Z,23.44
2023-05-21T02:14:52.044Z,23.44
2023-05-21T02:15:52.042Z,23.43
2023-05-21T02:16:52.019Z,23.43
2023-05-21T02:17:53.105Z,23.42
2023-05-21T02:18:53.260Z,23.46
2023-05-21T02:19:53.133Z,23.44
2023-05-21T02:20:52.252Z,23.43
2023-05-21T02:21:52.296Z,23.43
2023-05-21T02:22:53.814Z,23.43
2023-05-21T02:23:52.306Z,23.42
2023-05-21T02:24:52.356Z,23.42
2023-05-21T02:25:52.456Z,23.44
2023-05-21T02:26:52.651Z,23.43
2023-05-21T02:27:53.801Z,23.42
2023-05-21T02:28:52.627Z,23.42
2023-05-21T02:29:52.805Z,23.40
2023-05-21T02:30:52.601Z,23.40
2023-05-21T02:31:53.720Z,23.40
2023-05-21T02:32:53.837Z,23.42
2023-05-21T02:33:53.887Z,23.39
2023-05-21T02:34:54.023Z,23.40
2023-05-21T02:35:53.060Z,23.43
2023-05-21T02:36:54.112Z,23.40
2023-05-21T02:37:52.978Z,23.40
2023-05-21T02:38:54.023Z,23.42
2023-05-21T02:39:54.170Z,23.42
2023-05-21T02:40:53.389Z,23.40
2023-05-21T02:41:53.124Z,23.42
2023-05-21T02:42:54.302Z,23.40
2023-05-21T02:43:53.138Z,23.42
2023-05-21T02:44:54.305Z,23.40
2023-05-21T02:45:53.281Z,23.40
2023-05-21T02:46:53.417Z,23.42
2023-05-21T02:47:54.453Z,23.40
2023-05-21T02:48:54.349Z,23.39
2023-05-21T02:49:54.402Z,23.40
2023-05-21T02:50:53.491Z,23.40
2023-05-21T02:51:53.749Z,23.40
2023-05-21T02:52:53.854Z,23.40
2023-05-21T02:53:53.689Z,23.39
2023-05-21T02:54:54.621Z,23.37
2023-05-21T02:55:53.779Z,23.39
2023-05-21T02:56:54.733Z,23.40
2023-05-21T02:57:53.818Z,23.39
2023-05-21T02:58:53.820Z,23.39
2023-05-21T02:59:54.985Z,23.37
2023-05-21T03:00:54.153Z,23.37
2023-05-21T03:01:55.227Z,23.39
2023-05-21T03:02:54.447Z,23.37
2023-05-21T03:03:54.223Z,23.39
2023-05-21T03:04:55.258Z,23.40
2023-05-21T03:05:55.207Z,23.39
2023-05-21T03:06:54.356Z,23.37
2023-05-21T03:07:54.480Z,23.36
2023-05-21T03:08:54.454Z,23.37
2023-05-21T03:09:54.555Z,23.34
2023-05-21T03:10:54.571Z,23.39
2023-05-21T03:11:54.385Z,23.40
2023-05-21T03:12:55.422Z,23.39
2023-05-21T03:13:55.639Z,23.40
2023-05-21T03:14:54.592Z,23.36
2023-05-21T03:15:55.607Z,23.37
2023-05-21T03:16:54.661Z,23.37
2023-05-21T03:17:54.685Z,23.39
2023-05-21T03:18:56.006Z,23.34
2023-05-21T03:19:55.778Z,23.36
2023-05-21T03:20:55.781Z,23.34
2023-05-21T03:21:54.830Z,23.37
2023-05-21T03:22:56.028Z,23.39
2023-05-21T03:23:55.075Z,23.36
2023-05-21T03:24:55.066Z,23.37
2023-05-21T03:25:55.025Z,23.36
2023-05-21T03:26:55.126Z,23.36
2023-05-21T03:27:55.204Z,23.34
2023-05-21T03:28:56.324Z,23.37
2023-05-21T03:29:55.399Z,23.34
2023-05-21T03:30:56.247Z,23.36
2023-05-21T03:31:56.329Z,23.36
2023-05-21T03:32:55.452Z,23.34
2023-05-21T03:33:55.389Z,23.36
2023-05-21T03:34:55.458Z,23.34
2023-05-21T03:35:56.478Z,23.37
2023-05-21T03:36:55.538Z,23.36
2023-05-21T03:37:55.577Z,23.33
2023-05-21T03:38:55.632Z,23.34
2023-05-21T03:39:55.680Z,23.34
2023-05-21T03:40:56.950Z,23.33
2023-05-21T03:41:56.013Z,23.34
2023-05-21T03:42:56.006Z,23.33
2023-05-21T03:43:55.958Z,23.34
2023-05-21T03:44:56.112Z,23.33
2023-05-21T03:45:55.978Z,23.34
2023-05-21T03:46:56.011Z,23.34
2023-05-21T03:47:57.102Z,23.33
2023-05-21T03:48:56.261Z,23.32
2023-05-21T03:49:57.153Z,23.33
2023-05-21T03:50:56.201Z,23.34
2023-05-21T03:51:57.284Z,23.33
2023-05-21T03:52:56.397Z,23.32
2023-05-21T03:53:56.370Z,23.34
2023-05-21T03:54:56.452Z,23.32
2023-05-21T03:55:57.522Z,23.33
2023-05-21T03:56:56.550Z,23.32
2023-05-21T03:57:57.863Z,23.33
2023-05-21T03:58:56.865Z,23.32
2023-05-21T03:59:57.717Z,23.33
2023-05-21T04:00:56.727Z,23.32
2023-05-21T04:01:57.919Z,23.33
2023-05-21T04:02:56.935Z,23.30
2023-05-21T04:03:57.253Z,23.30
2023-05-21T04:04:57.159Z,23.32
2023-05-21T04:05:57.033Z,23.32
2023-05-21T04:06:57.178Z,23.33
2023-05-21T04:07:57.206Z,23.32
2023-05-21T04:08:57.137Z,23.30
2023-05-21T04:09:57.252Z,23.30
2023-05-21T04:10:57.296Z,23.30
2023-05-21T04:11:58.387Z,23.33
2023-05-21T04:12:58.355Z,23.32
2023-05-21T04:13:58.383Z,23.32
2023-05-21T04:14:57.512Z,23.33
2023-05-21T04:15:57.585Z,23.33
2023-05-21T04:16:57.639Z,23.32
2023-05-21T04:17:57.580Z,23.32
2023-05-21T04:18:58.869Z,23.32
2023-05-21T04:19:57.643Z,23.30
2023-05-21T04:20:58.939Z,23.30
2023-05-21T04:21:57.771Z,23.32
2023-05-21T04:22:57.990Z,23.32
2023-05-21T04:23:58.998Z,23.32
2023-05-21T04:24:57.872Z,23.29
2023-05-21T04:25:59.154Z,23.30
2023-05-21T04:26:57.970Z,23.33
2023-05-21T04:27:58.325Z,23.30
2023-05-21T04:28:59.103Z,23.30
2023-05-21T04:29:59.139Z,23.32
2023-05-21T04:30:58.456Z,23.29
2023-05-21T04:31:59.335Z,23.32
2023-05-21T04:32:58.398Z,23.30
2023-05-21T04:33:58.422Z,23.29
2023-05-21T04:34:59.410Z,23.30
2023-05-21T04:35:58.440Z,23.29
2023-05-21T04:36:59.477Z,23.30
2023-05-21T04:37:58.609Z,23.30
2023-05-21T04:38:59.591Z,23.30
2023-05-21T04:39:58.731Z,23.32
2023-05-21T04:40:59.807Z,23.32
2023-05-21T04:41:59.967Z,23.30
2023-05-21T04:42:58.957Z,23.30
2023-05-21T04:43:58.868Z,23.30
2023-05-21T04:45:00.176Z,23.27
2023-05-21T04:46:00.153Z,23.27
2023-05-21T04:46:59.054Z,23.30
2023-05-21T04:48:00.179Z,23.26
2023-05-21T04:49:00.205Z,23.32
2023-05-21T04:49:59.226Z,23.27
2023-05-21T04:51:00.205Z,23.29
2023-05-21T04:51:59.427Z,23.29
2023-05-21T04:52:59.321Z,23.30
2023-05-21T04:53:59.505Z,23.30
2023-05-21T04:55:00.449Z,23.29
2023-05-21T04:55:59.477Z,23.27
2023-05-21T04:57:00.723Z,23.29
2023-05-21T04:58:00.604Z,23.29
2023-05-21T04:59:00.903Z,23.27
2023-05-21T05:00:00.705Z,23.30
2023-05-21T05:00:59.970Z,23.27
2023-05-21T05:01:59.974Z,23.29
2023-05-21T05:03:01.054Z,23.32
2023-05-21T05:04:00.990Z,23.30
2023-05-21T05:04:59.953Z,23.30
2023-05-21T05:06:00.126Z,23.29
2023-05-21T05:07:00.056Z,23.32
2023-05-21T05:08:00.316Z,23.29
2023-05-21T05:09:01.138Z,23.29
2023-05-21T05:10:01.469Z,23.27
2023-05-21T05:11:01.413Z,23.30
2023-05-21T05:12:01.353Z,23.29
2023-05-21T05:13:00.354Z,23.27
2023-05-21T05:14:00.405Z,23.27
2023-05-21T05:15:00.562Z,23.30
2023-05-21T05:16:00.810Z,23.29
2023-05-21T05:17:01.727Z,23.29
2023-05-21T05:18:00.727Z,23.29
2023-05-21T05:19:02.088Z,23.30
2023-05-21T05:20:01.784Z,23.29
2023-05-21T05:21:00.767Z,23.29
2023-05-21T05:22:00.829Z,23.30
2023-05-21T05:23:00.983Z,23.30
2023-05-21T05:24:02.168Z,23.30
2023-05-21T05:25:02.185Z,23.29
2023-05-21T05:26:02.136Z,23.30
2023-05-21T05:27:01.142Z,23.32
2023-05-21T05:28:01.280Z,23.27
2023-05-21T05:29:02.295Z,23.30
2023-05-21T05:30:02.369Z,23.29
2023-05-21T05:31:01.434Z,23.32
2023-05-21T05:32:01.319Z,23.29
2023-05-21T05:33:02.497Z,23.29
2023-05-21T05:34:01.593Z,23.30
2023-05-21T05:35:02.609Z,23.32
2023-05-21T05:36:01.754Z,23.27
2023-05-21T05:37:01.581Z,23.29
2023-05-21T05:38:01.792Z,23.32
2023-05-21T05:39:01.688Z,23.29
2023-05-21T05:40:02.728Z,23.30
2023-05-21T05:41:01.787Z,23.30
2023-05-21T05:42:01.895Z,23.32
2023-05-21T05:43:01.957Z,23.32
2023-05-21T05:44:03.082Z,23.32
2023-05-21T05:45:02.999Z,23.30
2023-05-21T05:46:03.235Z,23.30
2023-05-21T05:47:02.247Z,23.32
2023-05-21T05:48:03.227Z,23.32
2023-05-21T05:49:02.241Z,23.32
2023-05-21T05:50:03.282Z,23.29
2023-05-21T05:51:02.315Z,23.32
2023-05-21T05:52:02.364Z,23.30
2023-05-21T05:53:03.444Z,23.29
2023-05-21T05:54:02.516Z,23.32
2023-05-21T05:55:03.617Z,23.30
2023-05-21T05:56:02.674Z,23.30
2023-05-21T05:57:03.688Z,23.32
2023-05-21T05:58:02.894Z,23.32
2023-05-21T05:59:03.729Z,23.33
2023-05-21T06:00:03.023Z,23.30
2023-05-21T06:01:03.818Z,23.30
2023-05-21T06:02:03.072Z,23.36
2023-05-21T06:03:04.080Z,23.32
2023-05-21T06:04:04.014Z,23.32
2023-05-21T06:05:04.150Z,23.33
2023-05-21T06:06:04.123Z,23.32
2023-05-21T06:07:04.365Z,23.33
2023-05-21T06:08:04.159Z,23.34
2023-05-21T06:09:03.434Z,23.33
2023-05-21T06:10:03.418Z,23.33
2023-05-21T06:11:04.375Z,23.33
2023-05-21T06:12:04.423Z,23.33
2023-05-21T06:13:04.591Z,23.36
2023-05-21T06:14:03.468Z,23.33
2023-05-21T06:15:03.612Z,23.33
2023-05-21T06:16:03.615Z,23.36
2023-05-21T06:17:03.631Z,23.34
2023-05-21T06:18:03.766Z,23.32
2023-05-21T06:19:04.744Z,23.34
2023-05-21T06:20:04.979Z,23.33
2023-05-21T06:21:04.810Z,23.34
2023-05-21T06:22:04.837Z,23.34
2023-05-21T06:23:04.865Z,23.36
2023-05-21T06:24:03.915Z,23.34
2023-05-21T06:25:04.978Z,23.36
2023-05-21T06:26:05.029Z,23.33
2023-05-21T06:27:05.052Z,23.39
2023-05-21T06:28:04.104Z,23.36
2023-05-21T06:29:04.144Z,23.37
2023-05-21T06:30:05.209Z,23.36
2023-05-21T06:31:04.235Z,23.37
2023-05-21T06:32:04.286Z,23.36
2023-05-21T06:33:05.424Z,23.37
2023-05-21T06:34:05.612Z,23.39
2023-05-21T06:35:04.433Z,23.39
2023-05-21T06:36:04.455Z,23.37
2023-05-21T06:37:05.907Z,23.39
2023-05-21T06:38:04.672Z,23.37
2023-05-21T06:39:05.645Z,23.39
2023-05-21T06:40:04.787Z,23.40
2023-05-21T06:41:04.674Z,23.39
2023-05-21T06:42:04.697Z,23.39
2023-05-21T06:43:05.840Z,23.40
2023-05-21T06:44:06.009Z,23.39
2023-05-21T06:45:04.899Z,23.42
2023-05-21T06:46:05.889Z,23.40
2023-05-21T06:47:05.922Z,23.39
2023-05-21T06:48:05.997Z,23.40
2023-05-21T06:49:06.050Z,23.43
2023-05-21T06:50:06.007Z,23.42
2023-05-21T06:51:05.050Z,23.43
2023-05-21T06:52:05.161Z,23.43
2023-05-21T06:53:06.407Z,23.42
2023-05-21T06:54:05.179Z,23.42
2023-05-21T06:55:05.250Z,23.43
2023-05-21T06:56:06.331Z,23.44
2023-05-21T06:57:05.433Z,23.43
2023-05-21T06:58:06.383Z,23.46
2023-05-21T06:59:05.446Z,23.42
2023-05-21T07:00:05.410Z,23.43
2023-05-21T07:01:05.614Z,23.44
2023-05-21T07:02:05.727Z,23.46
2023-05-21T07:03:05.766Z,23.46
2023-05-21T07:04:05.574Z,23.46
2023-05-21T07:05:05.558Z,23.46
2023-05-21T07:06:06.894Z,23.47
2023-05-21T07:07:05.619Z,23.46
2023-05-21T07:08:05.733Z,23.46
2023-05-21T07:09:05.712Z,23.47
2023-05-21T07:10:06.722Z,23.47
2023-05-21T07:11:06.866Z,23.49
2023-05-21T07:12:05.786Z,23.47
2023-05-21T07:13:05.948Z,23.47
2023-05-21T07:14:06.033Z,23.47
2023-05-21T07:15:05.863Z,23.49
2023-05-21T07:16:06.922Z,23.47
2023-05-21T07:17:05.944Z,23.47
2023-05-21T07:18:06.970Z,23.49
2023-05-21T07:19:07.064Z,23.49
2023-05-21T07:20:06.985Z,23.49
2023-05-21T07:21:06.032Z,23.50
2023-05-21T07:22:06.160Z,23.49
2023-05-21T07:23:06.184Z,23.53
2023-05-21T07:24:07.410Z,23.52
2023-05-21T07:25:07.266Z,23.53
2023-05-21T07:26:06.140Z,23.50
2023-05-21T07:27:14.322Z,23.52
2023-05-21T07:28:07.142Z,23.53
2023-05-21T07:29:07.187Z,23.53
2023-05-21T07:30:06.165Z,23.53
2023-05-21T07:31:06.137Z,23.53
2023-05-21T07:32:06.099Z,23.53
2023-05-21T07:33:07.332Z,23.56
2023-05-21T07:34:07.102Z,23.53
2023-05-21T07:35:06.191Z,23.56
2023-05-21T07:36:06.204Z,23.56
2023-05-21T07:37:07.219Z,23.57
2023-05-21T07:38:06.113Z,23.56
2023-05-21T07:39:07.089Z,23.57
2023-05-21T07:40:07.104Z,23.56
2023-05-21T07:41:06.075Z,23.58
2023-05-21T07:42:06.047Z,23.58
2023-05-21T07:43:07.112Z,23.57
2023-05-21T07:44:06.161Z,23.58
2023-05-21T07:45:06.067Z,23.57
2023-05-21T07:46:06.053Z,23.60
2023-05-21T07:47:06.263Z,23.60
2023-05-21T07:48:06.169Z,23.61
2023-05-21T07:49:07.132Z,23.58
2023-05-21T07:50:06.223Z,23.60
2023-05-21T07:51:05.987Z,23.60
2023-05-21T07:52:07.010Z,23.61
2023-05-21T07:53:06.264Z,23.61
2023-05-21T07:54:06.170Z,23.61
2023-05-21T07:55:07.059Z,23.61
2023-05-21T07:56:06.245Z,23.61
2023-05-21T07:57:07.198Z,23.61
2023-05-21T07:58:06.313Z,23.63
2023-05-21T07:59:06.107Z,23.63
2023-05-21T08:00:07.246Z,23.64
2023-05-21T08:01:07.181Z,23.64
2023-05-21T08:02:07.425Z,23.64
2023-05-21T08:03:06.200Z,23.65
2023-05-21T08:04:06.522Z,23.65
2023-05-21T08:05:06.579Z,23.64
2023-05-21T08:06:07.516Z,23.64
2023-05-21T08:07:07.230Z,23.65
2023-05-21T08:08:06.251Z,23.65
2023-05-21T08:09:06.295Z,23.65
2023-05-21T08:10:07.421Z,23.68
2023-05-21T08:11:07.280Z,23.67
2023-05-21T08:12:06.286Z,23.70
2023-05-21T08:13:07.451Z,23.67
2023-05-21T08:14:06.378Z,23.70
2023-05-21T08:15:06.314Z,23.67
2023-05-21T08:16:07.353Z,23.68
2023-05-21T08:17:06.360Z,23.68
2023-05-21T08:18:06.436Z,23.71
2023-05-21T08:19:07.533Z,23.71
2023-05-21T08:20:07.384Z,23.70
2023-05-21T08:21:07.492Z,23.71
2023-05-21T08:22:06.522Z,23.73
2023-05-21T08:23:06.601Z,23.70
2023-05-21T08:24:06.412Z,23.74
2023-05-21T08:25:06.432Z,23.71
2023-05-21T08:26:06.418Z,23.73
2023-05-21T08:27:06.448Z,23.73
2023-05-21T08:28:06.483Z,23.74
2023-05-21T08:29:07.481Z,23.73
2023-05-21T08:30:06.449Z,23.74
2023-05-21T08:31:07.687Z,23.73
2023-05-21T08:32:06.681Z,23.73
2023-05-21T08:33:06.547Z,23.74
2023-05-21T08:34:07.647Z,23.74
2023-05-21T08:35:07.652Z,23.75
2023-05-21T08:36:07.583Z,23.75
2023-05-21T08:37:06.499Z,23.77
2023-05-21T08:38:07.508Z,23.75
2023-05-21T08:39:07.526Z,23.77
2023-05-21T08:40:06.690Z,23.77
2023-05-21T08:41:06.520Z,23.75
2023-05-21T08:42:07.538Z,23.78
2023-05-21T08:43:06.570Z,23.77
2023-05-21T08:44:07.572Z,23.80
2023-05-21T08:45:06.975Z,23.80
2023-05-21T08:46:07.580Z,23.80
2023-05-21T08:47:07.580Z,23.75
2023-05-21T08:48:06.672Z,23.80
2023-05-21T08:49:06.603Z,23.80
2023-05-21T08:50:06.780Z,23.80
2023-05-21T08:51:07.598Z,23.78
2023-05-21T08:52:07.636Z,23.81
2023-05-21T08:53:16.064Z,23.80
2023-05-21T08:54:07.800Z,23.80
2023-05-21T08:55:06.606Z,23.81
2023-05-21T08:56:06.594Z,23.80
2023-05-21T08:57:06.660Z,23.82
2023-05-21T08:58:07.642Z,23.82
2023-05-21T08:59:07.836Z,23.82
2023-05-21T09:00:06.575Z,23.85
2023-05-21T09:01:07.732Z,23.84
2023-05-21T09:02:06.821Z,23.82
2023-05-21T09:03:06.843Z,23.84
2023-05-21T09:04:19.693Z,23.81
2023-05-21T09:05:07.763Z,23.84
2023-05-21T09:06:06.760Z,23.85
2023-05-21T09:07:07.754Z,23.82
2023-05-21T09:08:06.562Z,23.85
2023-05-21T09:09:06.689Z,23.85
2023-05-21T09:10:07.526Z,23.88
2023-05-21T09:11:06.719Z,23.87
2023-05-21T09:12:06.524Z,23.85
2023-05-21T09:13:06.707Z,23.87
2023-05-21T09:14:06.493Z,23.89
2023-05-21T09:15:06.560Z,23.87
2023-05-21T09:16:07.466Z,23.87
2023-05-21T09:17:06.606Z,23.88
2023-05-21T09:18:06.660Z,23.89
2023-05-21T09:19:07.466Z,23.87
2023-05-21T09:20:06.441Z,23.89
2023-05-21T09:21:06.523Z,23.89
2023-05-21T09:22:07.655Z,23.87
2023-05-21T09:23:07.390Z,23.89
2023-05-21T09:24:06.649Z,23.89
2023-05-21T09:25:06.514Z,23.91
2023-05-21T09:26:06.675Z,23.89
2023-05-21T09:27:06.402Z,23.91
2023-05-21T09:28:06.533Z,23.91
2023-05-21T09:29:06.564Z,23.91
2023-05-21T09:30:07.632Z,23.89
2023-05-21T09:31:06.500Z,23.89
2023-05-21T09:32:07.430Z,23.89
2023-05-21T09:33:06.590Z,23.91
2023-05-21T09:34:06.409Z,23.94
2023-05-21T09:35:07.333Z,23.92
2023-05-21T09:36:07.392Z,23.92
2023-05-21T09:37:13.434Z,23.94
2023-05-21T09:38:07.355Z,23.92
2023-05-21T09:39:07.479Z,23.92
2023-05-21T09:40:06.309Z,23.95
2023-05-21T09:41:07.300Z,23.92
2023-05-21T09:42:07.285Z,23.94
2023-05-21T09:43:06.278Z,23.95
2023-05-21T09:44:07.276Z,23.97
2023-05-21T09:45:06.328Z,23.98
2023-05-21T09:46:06.324Z,23.95
2023-05-21T09:47:06.238Z,23.94
2023-05-21T09:48:07.279Z,23.97
2023-05-21T09:49:07.361Z,23.94
2023-05-21T09:50:06.559Z,23.97
2023-05-21T09:51:06.237Z,23.95
2023-05-21T09:52:06.471Z,23.97
2023-05-21T09:53:06.343Z,23.97
2023-05-21T09:54:07.201Z,23.97
2023-05-21T09:55:06.437Z,23.98
2023-05-21T09:56:06.446Z,23.99
2023-05-21T09:57:07.404Z,23.97
2023-05-21T09:58:06.186Z,23.98
2023-05-21T09:59:07.390Z,23.97
2023-05-21T10:00:06.162Z,24.01
2023-05-21T10:01:06.162Z,23.99
2023-05-21T10:02:06.328Z,24.01
2023-05-21T10:03:07.336Z,24.01
2023-05-21T10:04:07.404Z,23.98
2023-05-21T10:05:07.384Z,24.01
2023-05-21T10:06:07.169Z,24.01
2023-05-21T10:07:06.195Z,24.02
2023-05-21T10:08:06.308Z,24.02
2023-05-21T10:09:07.192Z,24.02
2023-05-21T10:10:06.232Z,23.99
2023-05-21T10:11:06.247Z,24.02
2023-05-21T10:12:07.108Z,24.02
2023-05-21T10:13:06.319Z,24.01
2023-05-21T10:14:06.088Z,24.02
2023-05-21T10:15:07.114Z,24.04
2023-05-21T10:16:06.155Z,24.02
2023-05-21T10:17:06.061Z,24.02
2023-05-21T10:18:06.385Z,24.02
2023-05-21T10:19:07.070Z,24.02
2023-05-21T10:20:06.055Z,24.05
2023-05-21T10:21:06.045Z,24.07
2023-05-21T10:22:06.184Z,24.05
2023-05-21T10:23:06.057Z,24.04
2023-05-21T10:24:05.996Z,24.04
2023-05-21T10:25:07.080Z,24.05
2023-05-21T10:26:07.157Z,24.05
2023-05-21T10:27:05.967Z,24.04
2023-05-21T10:28:06.982Z,24.04
2023-05-21T10:29:05.971Z,24.05
2023-05-21T10:30:06.070Z,24.05
2023-05-21T10:31:05.954Z,24.08
2023-05-21T10:32:07.271Z,24.05
2023-05-21T10:33:07.117Z,24.08
2023-05-21T10:34:06.043Z,24.04
2023-05-21T10:35:06.250Z,24.08
2023-05-21T10:36:07.003Z,24.05
2023-05-21T10:37:06.139Z,24.07
2023-05-21T10:38:05.949Z,24.07
2023-05-21T10:39:07.132Z,24.08
2023-05-21T10:40:06.051Z,24.07
2023-05-21T10:41:06.893Z,24.07
2023-05-21T10:42:05.882Z,24.07
2023-05-21T10:43:05.905Z,24.08
2023-05-21T10:44:05.863Z,24.07
2023-05-21T10:45:06.853Z,24.11
2023-05-21T10:46:06.958Z,24.08
2023-05-21T10:47:06.847Z,24.09
2023-05-21T10:48:05.905Z,24.11
2023-05-21T10:49:05.953Z,24.09
2023-05-21T10:50:05.825Z,24.09
2023-05-21T10:51:05.819Z,24.09
2023-05-21T10:52:05.891Z,24.11
2023-05-21T10:53:05.854Z,24.09
2023-05-21T10:54:05.821Z,24.09
2023-05-21T10:55:06.790Z,24.11
2023-05-21T10:56:07.076Z,24.11
2023-05-21T10:57:06.792Z,24.11
2023-05-21T10:58:06.922Z,24.11
2023-05-21T10:59:05.865Z,24.12
2023-05-21T11:00:06.842Z,24.12
2023-05-21T11:01:06.810Z,24.12
2023-05-21T11:02:06.881Z,24.11
2023-05-21T11:03:05.802Z,24.11
2023-05-21T11:04:05.764Z,24.12
2023-05-21T11:05:05.716Z,24.13
2023-05-21T11:06:05.715Z,24.12
2023-05-21T11:07:05.724Z,24.11
2023-05-21T11:08:05.795Z,24.12
2023-05-21T11:09:06.871Z,24.11
2023-05-21T11:10:06.735Z,24.13
2023-05-21T11:11:05.867Z,24.12
2023-05-21T11:12:06.671Z,24.12
2023-05-21T11:13:06.702Z,24.13
2023-05-21T11:14:05.663Z,24.15
2023-05-21T11:15:05.662Z,24.13
2023-05-21T11:16:05.649Z,24.12
2023-05-21T11:17:05.643Z,24.13
2023-05-21T11:18:06.671Z,24.12
2023-05-21T11:19:05.709Z,24.13
2023-05-21T11:20:05.692Z,24.15
2023-05-21T11:21:05.625Z,24.13
2023-05-21T11:22:06.620Z,24.15
2023-05-21T11:23:05.604Z,24.13
2023-05-21T11:24:06.670Z,24.13
2023-05-21T11:25:06.665Z,24.13
2023-05-21T11:26:06.590Z,24.13
2023-05-21T11:27:05.591Z,24.15
2023-05-21T11:28:05.560Z,24.15
2023-05-21T11:29:05.561Z,24.15
2023-05-21T11:30:06.562Z,24.13
2023-05-21T11:31:05.551Z,24.15
2023-05-21T11:32:06.817Z,24.15
2023-05-21T11:33:06.658Z,24.16
2023-05-21T11:34:06.519Z,24.16
2023-05-21T11:35:05.609Z,24.15
2023-05-21T11:36:05.651Z,24.15
2023-05-21T11:37:06.612Z,24.16
2023-05-21T11:38:05.717Z,24.13
2023-05-21T11:39:06.564Z,24.16
2023-05-21T11:40:05.709Z,24.13
2023-05-21T11:41:06.797Z,24.15
2023-05-21T11:42:05.543Z,24.15
2023-05-21T11:43:06.501Z,24.15
2023-05-21T11:44:05.626Z,24.15
2023-05-21T11:45:05.607Z,24.15
2023-05-21T11:46:05.782Z,24.16
2023-05-21T11:47:06.441Z,24.18
2023-05-21T11:48:06.490Z,24.18
2023-05-21T11:49:06.472Z,24.18
2023-05-21T11:50:05.424Z,24.16
2023-05-21T11:51:06.558Z,24.16
2023-05-21T11:52:05.680Z,24.16
2023-05-21T11:53:05.473Z,24.16
2023-05-21T11:54:06.568Z,24.16
2023-05-21T11:55:05.582Z,24.16
2023-05-21T11:56:05.538Z,24.16
2023-05-21T11:57:05.551Z,24.16
2023-05-21T11:58:06.518Z,24.16
2023-05-21T11:59:06.538Z,24.16
2023-05-21T12:00:05.559Z,24.15
2023-05-21T12:01:05.568Z,24.15
2023-05-21T12:02:05.627Z,24.15
2023-05-21T12:03:05.662Z,24.19
2023-05-21T12:04:05.673Z,24.19
2023-05-21T12:05:06.610Z,24.18
2023-05-21T12:06:05.918Z,24.19
2023-05-21T12:07:05.618Z,24.18
2023-05-21T12:08:06.610Z,24.18
2023-05-21T12:09:05.637Z,24.16
2023-05-21T12:10:05.708Z,24.19
2023-05-21T12:11:05.674Z,24.18
2023-05-21T12:12:06.704Z,24.19
2023-05-21T12:13:06.721Z,24.19
2023-05-21T12:14:06.729Z,24.18
2023-05-21T12:15:05.703Z,24.19
2023-05-21T12:16:07.214Z,24.20
2023-05-21T12:17:06.743Z,24.19
2023-05-21T12:18:05.870Z,24.18
2023-05-21T12:19:05.964Z,24.18
2023-05-21T12:20:05.978Z,24.19
2023-05-21T12:21:06.126Z,24.19
2023-05-21T12:22:05.843Z,24.18
2023-05-21T12:23:05.955Z,24.19
2023-05-21T12:24:05.999Z,24.19
2023-05-21T12:25:06.913Z,24.18
2023-05-21T12:26:06.072Z,24.19
2023-05-21T12:27:07.145Z,24.19
2023-05-21T12:28:06.943Z,24.18
2023-05-21T12:29:06.097Z,24.18
2023-05-21T12:30:05.968Z,24.19
2023-05-21T12:31:06.228Z,24.19
2023-05-21T12:32:06.170Z,24.20
2023-05-21T12:33:06.293Z,24.19
2023-05-21T12:34:06.224Z,24.19
2023-05-21T12:35:07.248Z,24.16
2023-05-21T12:36:07.312Z,24.19
2023-05-21T12:37:06.302Z,24.18
2023-05-21T12:38:06.284Z,24.19
2023-05-21T12:39:06.322Z,24.19
2023-05-21T12:40:07.394Z,24.19
2023-05-21T12:41:07.686Z,24.20
2023-05-21T12:42:06.403Z,24.19
2023-05-21T12:43:06.453Z,24.18
2023-05-21T12:44:07.459Z,24.20
2023-05-21T12:45:07.720Z,24.20
2023-05-21T12:46:06.584Z,24.22
2023-05-21T12:47:06.465Z,24.22
2023-05-21T12:48:06.580Z,24.20
2023-05-21T12:49:07.522Z,24.19
2023-05-21T12:50:06.533Z,24.20
2023-05-21T12:51:06.794Z,24.20
2023-05-21T12:52:06.735Z,24.23
2023-05-21T12:53:07.642Z,24.20